Time;durP1;ratioP1;P1;durP2;ratioP2;P2;SDS_P1;SDS_P2;PMS_P1;PMS_P2;Temp;Humidity;BMP_temperature;BMP_pressure;BME280_temperature;BME280_humidity;BME280_pressure;Samples;Min_cycle;Max_cycle;Signal;HPM_P1;HPM_P2
2021/05/21 00:00:29;;;;;;;3.38;2.33;;;12.00;93.10;;;;;;5060382;28;20135;-83
2021/05/21 00:02:55;;;;;;;4.93;2.58;;;12.00;93.20;;;;;;5075438;28;20097;-84
2021/05/21 00:05:21;;;;;;;5.82;2.70;;;12.00;93.30;;;;;;5072609;28;20525;-83
2021/05/21 00:07:47;;;;;;;5.57;2.78;;;11.90;93.30;;;;;;5055366;28;20048;-84
2021/05/21 00:10:13;;;;;;;3.70;2.30;;;11.90;93.20;;;;;;5074204;28;20052;-84
2021/05/21 00:12:38;;;;;;;4.00;2.20;;;11.90;93.10;;;;;;5074381;28;20070;-87
2021/05/21 00:15:07;;;;;;;3.85;2.17;;;11.90;93.20;;;;;;5071762;28;20055;-84
2021/05/21 00:17:33;;;;;;;5.15;2.50;;;11.90;93.10;;;;;;5072731;28;20503;-83
2021/05/21 00:19:58;;;;;;;3.65;2.30;;;11.90;93.10;;;;;;5072161;28;20057;-83
2021/05/21 00:22:25;;;;;;;3.33;2.47;;;11.90;93.10;;;;;;5072026;28;20048;-83
2021/05/21 00:24:50;;;;;;;4.72;2.30;;;12.00;93.10;;;;;;5073209;28;20131;-85
2021/05/21 00:27:16;;;;;;;3.17;2.00;;;11.90;93.00;;;;;;5054995;28;20143;-84
2021/05/21 00:29:43;;;;;;;3.92;2.17;;;12.00;93.00;;;;;;5072912;28;20052;-83
2021/05/21 00:32:10;;;;;;;4.50;2.30;;;12.00;92.80;;;;;;5071961;28;20538;-83
2021/05/21 00:34:35;;;;;;;3.42;2.22;;;12.10;92.80;;;;;;5072154;28;20079;-83
2021/05/21 00:37:02;;;;;;;4.55;2.50;;;12.10;92.90;;;;;;5073073;28;20080;-86
2021/05/21 00:39:27;;;;;;;8.45;3.55;;;12.10;93.00;;;;;;5072679;28;20157;-82
2021/05/21 00:41:53;;;;;;;4.03;2.40;;;12.10;93.00;;;;;;5057133;28;20132;-83
2021/05/21 00:44:19;;;;;;;3.85;2.30;;;12.10;93.10;;;;;;5071666;28;20057;-83
2021/05/21 00:46:45;;;;;;;2.95;2.25;;;12.10;93.20;;;;;;5071549;28;20045;-83
2021/05/21 00:49:11;;;;;;;3.08;2.20;;;12.10;93.30;;;;;;5072081;28;20044;-83
2021/05/21 00:51:37;;;;;;;3.88;2.38;;;12.20;93.30;;;;;;5039358;28;20064;-83
2021/05/21 00:54:03;;;;;;;5.85;2.50;;;12.20;93.30;;;;;;5054571;28;20048;-83
2021/05/21 00:56:32;;;;;;;5.50;2.80;;;12.20;93.50;;;;;;5073152;28;20052;-83
2021/05/21 00:58:58;;;;;;;4.70;2.95;;;12.10;94.10;;;;;;5072170;28;20053;-86
2021/05/21 01:01:29;;;;;;;5.03;2.40;;;12.10;94.80;;;;;;5072421;28;20195;-83
2021/05/21 01:03:55;;;;;;;4.78;2.47;;;12.10;95.20;;;;;;5052817;28;20041;-84
2021/05/21 01:06:21;;;;;;;5.72;3.67;;;12.00;95.40;;;;;;5065617;28;20060;-83
2021/05/21 01:08:47;;;;;;;3.63;2.67;;;12.00;95.80;;;;;;5073617;28;20106;-85
2021/05/21 01:11:12;;;;;;;5.45;3.30;;;12.00;95.90;;;;;;5072259;28;20048;-83
2021/05/21 01:13:38;;;;;;;6.22;3.20;;;12.00;96.30;;;;;;5054689;28;20841;-84
2021/05/21 01:16:05;;;;;;;4.78;3.00;;;12.00;96.10;;;;;;5055739;28;20395;-85
2021/05/21 01:18:31;;;;;;;4.50;2.85;;;11.90;96.20;;;;;;5054738;28;20508;-85
2021/05/21 01:20:58;;;;;;;3.13;2.60;;;11.80;96.30;;;;;;5053485;28;20084;-84
2021/05/21 01:23:25;;;;;;;4.38;2.70;;;11.80;96.50;;;;;;5071719;28;20676;-84
2021/05/21 01:25:51;;;;;;;5.40;2.70;;;11.80;96.50;;;;;;5070986;28;20044;-84
2021/05/21 01:28:18;;;;;;;4.05;2.50;;;11.80;96.50;;;;;;5070695;28;20090;-82
2021/05/21 01:30:45;;;;;;;5.45;2.60;;;11.80;96.50;;;;;;5070434;28;20070;-84
2021/05/21 01:33:11;;;;;;;3.97;2.72;;;11.80;96.60;;;;;;5072531;28;20124;-84
2021/05/21 01:35:39;;;;;;;4.40;2.40;;;11.80;96.50;;;;;;5053540;28;20056;-84
2021/05/21 01:38:05;;;;;;;5.13;2.50;;;11.80;96.30;;;;;;5083112;28;20052;-87
2021/05/21 01:40:32;;;;;;;10.98;4.28;;;11.90;96.50;;;;;;5080426;28;20049;-85
2021/05/21 01:43:00;;;;;;;9.85;3.45;;;12.20;96.40;;;;;;5070833;28;20056;-85
2021/05/21 01:45:26;;;;;;;10.05;3.47;;;12.00;96.30;;;;;;5046732;28;20045;-84
2021/05/21 01:48:18;;;;;;;11.23;3.72;;;12.30;95.70;;;;;;5042991;28;20115;-85
2021/05/21 01:50:44;;;;;;;9.95;3.50;;;11.80;96.30;;;;;;5055427;28;20096;-84
2021/05/21 01:53:10;;;;;;;11.68;2.95;;;12.10;96.50;;;;;;5049773;28;20084;-85
2021/05/21 01:55:36;;;;;;;10.65;3.40;;;11.90;96.50;;;;;;5035216;28;20140;-84
2021/05/21 01:58:03;;;;;;;12.05;2.50;;;11.80;96.50;;;;;;5050760;28;20145;-84
2021/05/21 02:00:28;;;;;;;6.82;2.60;;;11.70;96.50;;;;;;5050511;28;20126;-84
2021/05/21 02:02:54;;;;;;;14.77;3.60;;;11.50;96.50;;;;;;5032810;28;20088;-85
2021/05/21 02:05:20;;;;;;;11.82;2.65;;;11.30;96.90;;;;;;5043127;28;20041;-83
2021/05/21 02:07:47;;;;;;;13.70;3.40;;;11.20;97.40;;;;;;5051542;28;20049;-84
2021/05/21 02:10:14;;;;;;;10.43;2.85;;;11.20;97.40;;;;;;5033795;28;20128;-84
2021/05/21 02:12:44;;;;;;;14.00;2.97;;;11.20;97.10;;;;;;5034611;28;20045;-84
2021/05/21 02:15:10;;;;;;;11.57;3.50;;;11.20;97.50;;;;;;5049476;28;20136;-85
2021/05/21 02:17:37;;;;;;;13.65;3.20;;;11.10;97.80;;;;;;5050273;28;20061;-83
2021/05/21 02:20:05;;;;;;;15.23;3.03;;;11.10;97.60;;;;;;5052817;28;20388;-84
2021/05/21 02:22:32;;;;;;;17.90;3.15;;;11.10;97.00;;;;;;5031694;28;20045;-84
2021/05/21 02:25:00;;;;;;;12.77;4.15;;;11.20;96.60;;;;;;5032609;28;20386;-85
2021/05/21 02:27:27;;;;;;;12.57;3.15;;;11.10;96.40;;;;;;5062061;28;20493;-84
2021/05/21 02:29:53;;;;;;;9.32;2.60;;;11.10;96.30;;;;;;5057513;28;20042;-84
2021/05/21 02:32:20;;;;;;;15.35;2.80;;;11.00;96.50;;;;;;5049507;28;20400;-83
2021/05/21 02:34:46;;;;;;;15.48;3.10;;;11.00;96.20;;;;;;5049641;28;20044;-84
2021/05/21 02:37:12;;;;;;;14.98;2.80;;;11.00;95.90;;;;;;5050245;28;20087;-85
2021/05/21 02:39:38;;;;;;;11.85;2.53;;;10.90;96.00;;;;;;5037547;28;20048;-84
2021/05/21 02:42:05;;;;;;;9.88;3.22;;;10.90;95.70;;;;;;5050165;28;20111;-84
2021/05/21 02:44:31;;;;;;;12.43;2.90;;;10.90;95.80;;;;;;5058769;28;20052;-83
2021/05/21 02:46:57;;;;;;;12.40;3.10;;;11.00;95.80;;;;;;5071170;28;20048;-84
2021/05/21 02:49:23;;;;;;;13.77;2.75;;;10.70;95.50;;;;;;5070172;28;20044;-84
2021/05/21 02:51:52;;;;;;;11.80;2.75;;;10.70;95.20;;;;;;5069830;28;20044;-82
2021/05/21 02:54:19;;;;;;;11.57;2.45;;;10.60;95.40;;;;;;5069450;28;20072;-82
2021/05/21 02:56:45;;;;;;;12.18;3.13;;;10.60;95.70;;;;;;5067448;28;20045;-84
2021/05/21 02:59:11;;;;;;;11.48;3.13;;;10.50;95.70;;;;;;5051653;28;20044;-84
2021/05/21 03:01:37;;;;;;;10.63;2.58;;;10.50;95.70;;;;;;5051598;28;20076;-84
2021/05/21 03:04:04;;;;;;;14.38;2.58;;;10.50;95.70;;;;;;5051982;28;20070;-84
2021/05/21 03:06:30;;;;;;;12.10;2.60;;;10.50;95.50;;;;;;5067864;28;20224;-85
2021/05/21 03:08:55;;;;;;;9.77;2.70;;;10.50;95.50;;;;;;5051698;28;20131;-84
2021/05/21 03:11:21;;;;;;;16.27;3.47;;;10.50;95.60;;;;;;5049724;28;20052;-84
2021/05/21 03:13:47;;;;;;;14.75;2.75;;;10.50;95.60;;;;;;5084698;28;20187;-82
2021/05/21 03:16:13;;;;;;;14.30;2.80;;;10.40;95.70;;;;;;5052181;28;20511;-83
2021/05/21 03:18:40;;;;;;;15.35;2.92;;;10.40;95.70;;;;;;5054277;28;20127;-84
2021/05/21 03:21:06;;;;;;;16.38;3.08;;;10.30;95.90;;;;;;5083086;28;20231;-84
2021/05/21 03:23:32;;;;;;;18.05;3.42;;;10.30;95.90;;;;;;5069917;28;20135;-83
2021/05/21 03:25:58;;;;;;;16.50;3.67;;;10.20;96.10;;;;;;5071187;28;20461;-84
2021/05/21 03:28:24;;;;;;;16.05;3.10;;;10.20;96.20;;;;;;5068906;28;20483;-83
2021/05/21 03:30:50;;;;;;;14.55;2.95;;;10.20;96.40;;;;;;5051585;28;20132;-83
2021/05/21 03:33:16;;;;;;;15.55;3.22;;;10.10;96.40;;;;;;5051430;28;20136;-83
2021/05/21 03:35:42;;;;;;;13.65;3.10;;;10.10;96.50;;;;;;5051386;28;20052;-84
2021/05/21 03:38:08;;;;;;;15.88;3.10;;;10.10;96.60;;;;;;5068683;28;20507;-84
2021/05/21 03:40:36;;;;;;;19.95;3.00;;;10.00;96.60;;;;;;5069469;28;20072;-83
2021/05/21 03:43:02;;;;;;;16.17;3.10;;;10.00;96.60;;;;;;5068277;28;20528;-84
2021/05/21 03:45:28;;;;;;;17.10;3.17;;;10.00;96.60;;;;;;5069412;28;20048;-84
2021/05/21 03:47:54;;;;;;;15.10;3.20;;;10.00;96.60;;;;;;5049541;28;20361;-87
2021/05/21 03:50:21;;;;;;;14.70;3.10;;;9.90;96.60;;;;;;5080941;28;20044;-82
2021/05/21 03:52:48;;;;;;;13.18;2.95;;;10.00;96.60;;;;;;5082169;28;20114;-84
2021/05/21 03:55:14;;;;;;;14.65;2.80;;;10.00;96.60;;;;;;5068807;28;20133;-83
2021/05/21 03:57:41;;;;;;;13.85;2.97;;;10.00;96.70;;;;;;5073677;28;20048;-83
2021/05/21 04:00:10;;;;;;;13.10;3.00;;;9.90;96.60;;;;;;5071919;28;20128;-83
2021/05/21 04:02:36;;;;;;;12.93;3.13;;;9.90;96.60;;;;;;5048059;28;20041;-84
2021/05/21 04:05:04;;;;;;;15.55;3.20;;;9.90;96.70;;;;;;5065048;28;20056;-84
2021/05/21 04:07:30;;;;;;;14.93;3.30;;;9.90;96.80;;;;;;5052248;28;20128;-84
2021/05/21 04:09:55;;;;;;;16.40;2.95;;;9.90;96.90;;;;;;5053151;28;20466;-86
2021/05/21 04:12:21;;;;;;;15.15;3.22;;;9.90;97.00;;;;;;5050413;28;20048;-83
2021/05/21 04:14:48;;;;;;;14.95;3.08;;;9.90;97.00;;;;;;5068919;28;20056;-81
2021/05/21 04:17:13;;;;;;;15.68;3.33;;;9.90;97.00;;;;;;5053902;28;20075;-83
2021/05/21 04:19:40;;;;;;;13.95;3.20;;;9.90;97.00;;;;;;5069274;28;20044;-83
2021/05/21 04:22:05;;;;;;;18.15;3.60;;;9.90;97.00;;;;;;5068494;28;20055;-83
2021/05/21 04:24:31;;;;;;;17.45;3.80;;;10.00;97.10;;;;;;5048885;28;20210;-83
2021/05/21 04:26:57;;;;;;;16.90;2.90;;;10.00;97.00;;;;;;5069745;28;20136;-85
2021/05/21 04:29:23;;;;;;;14.90;3.10;;;10.10;96.90;;;;;;5068993;28;20049;-83
2021/05/21 04:31:49;;;;;;;14.43;3.75;;;10.00;97.00;;;;;;5072137;28;20155;-82
2021/05/21 04:34:15;;;;;;;16.45;3.38;;;10.10;97.20;;;;;;5068977;28;20496;-83
2021/05/21 04:36:41;;;;;;;14.55;3.38;;;10.10;97.10;;;;;;5071170;28;20051;-83
2021/05/21 04:39:07;;;;;;;19.20;3.78;;;10.10;97.10;;;;;;5069962;28;20056;-83
2021/05/21 04:41:33;;;;;;;21.92;3.40;;;10.20;97.10;;;;;;5071895;28;20549;-82
2021/05/21 04:43:59;;;;;;;19.15;3.50;;;10.20;97.10;;;;;;5057652;28;20048;-87
2021/05/21 04:46:25;;;;;;;15.65;3.75;;;10.20;97.10;;;;;;5081362;28;20051;-83
2021/05/21 04:48:50;;;;;;;18.02;3.67;;;10.20;97.00;;;;;;5082047;28;20049;-83
2021/05/21 04:51:16;;;;;;;20.67;3.75;;;10.40;97.00;;;;;;5072612;28;20619;-83
2021/05/21 04:53:42;;;;;;;21.10;4.18;;;10.30;96.90;;;;;;5071620;28;20369;-82
2021/05/21 04:56:09;;;;;;;17.13;4.03;;;10.40;96.90;;;;;;5043134;28;20060;-83
2021/05/21 04:58:35;;;;;;;16.30;3.60;;;10.50;96.80;;;;;;5071322;28;20063;-83
2021/05/21 05:01:02;;;;;;;16.70;3.55;;;10.50;96.70;;;;;;5071622;28;20086;-84
2021/05/21 05:03:29;;;;;;;14.50;3.17;;;10.60;96.80;;;;;;5067475;28;20048;-84
2021/05/21 05:05:56;;;;;;;18.70;3.55;;;10.60;96.70;;;;;;5069797;28;20395;-83
2021/05/21 05:08:22;;;;;;;19.98;4.18;;;10.70;96.70;;;;;;5071437;28;20045;-84
2021/05/21 05:10:49;;;;;;;18.33;3.83;;;10.70;96.50;;;;;;5078784;28;20082;-83
2021/05/21 05:13:16;;;;;;;18.58;3.38;;;10.70;96.40;;;;;;5096244;28;20052;-86
2021/05/21 05:15:43;;;;;;;19.95;3.80;;;10.90;96.30;;;;;;5072862;28;20082;-84
2021/05/21 05:18:09;;;;;;;20.40;4.05;;;10.90;96.20;;;;;;5072952;28;20046;-84
2021/05/21 05:20:36;;;;;;;14.40;3.65;;;11.00;95.90;;;;;;5075922;28;20056;-84
2021/05/21 05:23:02;;;;;;;16.35;3.67;;;11.10;95.90;;;;;;5083434;28;20051;-85
2021/05/21 05:25:29;;;;;;;16.85;3.70;;;11.20;95.80;;;;;;5053310;28;20135;-84
2021/05/21 05:27:55;;;;;;;16.65;4.00;;;11.30;95.60;;;;;;5070165;28;20084;-83
2021/05/21 05:30:22;;;;;;;16.25;3.50;;;11.30;95.30;;;;;;5052486;28;20039;-83
2021/05/21 05:32:48;;;;;;;18.63;3.97;;;11.40;95.10;;;;;;5069101;28;20088;-83
2021/05/21 05:35:14;;;;;;;21.92;4.40;;;11.40;95.10;;;;;;5067721;28;20045;-85
2021/05/21 05:37:40;;;;;;;15.50;3.50;;;11.50;95.10;;;;;;5071685;28;20060;-84
2021/05/21 05:40:07;;;;;;;21.27;4.15;;;11.60;95.10;;;;;;5052975;28;20060;-83
2021/05/21 05:42:33;;;;;;;14.55;3.30;;;11.60;95.00;;;;;;5069645;28;20052;-83
2021/05/21 05:44:59;;;;;;;13.85;3.97;;;11.70;94.70;;;;;;5069937;28;20044;-87
2021/05/21 05:47:25;;;;;;;18.45;4.22;;;11.60;94.70;;;;;;5069125;28;20043;-83
2021/05/21 05:49:51;;;;;;;21.63;4.40;;;11.70;94.90;;;;;;5057699;28;20120;-84
2021/05/21 05:52:17;;;;;;;21.75;4.97;;;11.70;94.70;;;;;;5070200;28;20127;-83
2021/05/21 05:54:43;;;;;;;16.85;4.03;;;11.70;94.70;;;;;;5069901;28;20495;-83
2021/05/21 05:57:09;;;;;;;18.20;4.13;;;11.80;94.40;;;;;;5059476;28;20046;-84
2021/05/21 05:59:35;;;;;;;18.17;3.70;;;11.80;94.30;;;;;;5065487;28;20047;-86
2021/05/21 06:02:01;;;;;;;21.25;3.80;;;11.90;94.30;;;;;;5068302;28;20075;-88
2021/05/21 06:04:27;;;;;;;14.50;3.72;;;11.90;94.50;;;;;;5072546;28;20494;-86
2021/05/21 06:06:54;;;;;;;14.90;3.50;;;11.90;94.50;;;;;;5069418;28;20123;-87
2021/05/21 06:09:20;;;;;;;17.08;3.70;;;12.00;94.60;;;;;;5075877;28;20108;-85
2021/05/21 06:11:46;;;;;;;16.38;4.25;;;12.00;94.60;;;;;;5075215;28;20471;-87
2021/05/21 06:14:11;;;;;;;15.85;3.58;;;12.00;94.30;;;;;;5061913;28;20047;-86
2021/05/21 06:16:37;;;;;;;17.42;4.45;;;12.20;93.60;;;;;;5077635;28;20049;-85
2021/05/21 06:19:03;;;;;;;18.92;3.88;;;12.30;93.90;;;;;;5052891;28;20106;-85
2021/05/21 06:21:31;;;;;;;14.90;3.60;;;12.40;93.80;;;;;;5067418;28;20052;-86
2021/05/21 06:23:57;;;;;;;16.20;3.83;;;12.60;92.80;;;;;;5070394;28;20047;-85
2021/05/21 06:28:51;;;;;;;16.35;3.10;;;12.70;92.30;;;;;;5069800;28;20131;-85
2021/05/21 06:31:17;;;;;;;17.30;3.72;;;12.80;91.90;;;;;;5070038;28;20049;-83
2021/05/21 06:33:43;;;;;;;15.30;3.42;;;12.80;91.50;;;;;;5055252;28;20060;-84
2021/05/21 06:36:10;;;;;;;17.10;4.68;;;12.60;92.20;;;;;;5070002;28;20060;-84
2021/05/21 06:38:37;;;;;;;18.63;4.03;;;12.50;93.40;;;;;;5068330;28;20048;-83
2021/05/21 06:41:02;;;;;;;13.70;3.40;;;12.30;93.60;;;;;;5067846;28;20131;-85
2021/05/21 06:43:29;;;;;;;15.77;3.78;;;12.10;94.20;;;;;;5067515;28;20117;-85
2021/05/21 06:45:56;;;;;;;15.90;3.65;;;12.00;94.60;;;;;;5069603;28;20074;-82
2021/05/21 06:48:26;;;;;;;17.35;3.88;;;11.90;95.10;;;;;;5066372;28;20055;-84
2021/05/21 06:50:52;;;;;;;16.17;3.63;;;11.90;95.50;;;;;;5067198;28;20397;-81
2021/05/21 06:53:20;;;;;;;19.23;4.07;;;11.80;95.80;;;;;;5084142;28;20438;-81
2021/05/21 06:55:45;;;;;;;16.80;3.30;;;11.80;95.80;;;;;;5052969;28;20052;-84
2021/05/21 06:58:11;;;;;;;14.98;3.67;;;11.90;95.90;;;;;;5051207;28;20480;-84
2021/05/21 07:00:41;;;;;;;14.70;3.45;;;11.80;95.60;;;;;;5084372;28;20534;-83
2021/05/21 07:03:07;;;;;;;17.70;4.32;;;12.00;95.60;;;;;;5047545;28;20063;-83
2021/05/21 07:05:33;;;;;;;16.40;4.25;;;12.10;95.50;;;;;;5049572;28;20041;-84
2021/05/21 07:07:59;;;;;;;15.75;3.78;;;12.40;95.40;;;;;;5049716;28;20041;-86
2021/05/21 07:10:25;;;;;;;16.70;4.10;;;12.70;94.60;;;;;;5067656;28;20121;-84
2021/05/21 07:12:50;;;;;;;15.63;3.80;;;12.90;93.80;;;;;;5068725;28;20485;-82
2021/05/21 07:15:16;;;;;;;13.68;2.97;;;13.00;93.00;;;;;;5068734;28;20049;-84
2021/05/21 07:17:43;;;;;;;18.63;3.50;;;13.30;91.20;;;;;;5051411;28;20053;-82
2021/05/21 07:20:14;;;;;;;15.55;4.05;;;13.20;91.80;;;;;;5067183;28;20445;-86
2021/05/21 07:22:41;;;;;;;15.43;3.45;;;13.50;90.60;;;;;;5044678;28;20056;-87
2021/05/21 07:25:07;;;;;;;9.75;2.95;;;13.40;91.00;;;;;;5053933;28;20056;-85
2021/05/21 07:27:34;;;;;;;19.58;4.85;;;13.50;90.40;;;;;;5069337;28;20491;-87
2021/05/21 07:30:00;;;;;;;19.35;4.88;;;13.40;90.50;;;;;;5067660;28;20103;-87
2021/05/21 07:32:26;;;;;;;14.32;3.53;;;13.60;90.00;;;;;;5068108;28;20036;-84
2021/05/21 07:34:52;;;;;;;16.70;4.45;;;13.20;91.20;;;;;;5067183;28;20488;-83
2021/05/21 07:37:18;;;;;;;22.48;5.13;;;13.20;90.90;;;;;;5049468;28;20052;-82
2021/05/21 07:39:44;;;;;;;12.10;3.70;;;13.10;91.00;;;;;;5068170;28;20049;-84
2021/05/21 07:42:10;;;;;;;22.52;7.28;;;13.00;91.30;;;;;;5050505;28;20099;-84
2021/05/21 07:44:35;;;;;;;15.77;3.35;;;12.80;92.20;;;;;;5070528;28;20049;-84
2021/05/21 07:47:01;;;;;;;14.95;3.28;;;12.80;92.70;;;;;;5064146;28;20425;-86
2021/05/21 07:49:27;;;;;;;18.42;4.78;;;12.40;93.50;;;;;;5031367;28;20547;-84
2021/05/21 07:51:54;;;;;;;18.73;4.80;;;12.10;94.50;;;;;;5050197;28;20053;-84
2021/05/21 07:54:21;;;;;;;15.13;4.25;;;12.10;94.80;;;;;;5035316;28;20040;-82
2021/05/21 07:56:47;;;;;;;17.35;3.67;;;11.90;94.90;;;;;;5050449;28;20048;-83
2021/05/21 07:59:13;;;;;;;18.70;4.32;;;12.00;95.00;;;;;;5047923;28;20053;-83
2021/05/21 08:01:40;;;;;;;14.00;3.47;;;12.00;95.10;;;;;;5048080;28;20053;-84
2021/05/21 08:04:06;;;;;;;18.48;3.72;;;12.10;95.10;;;;;;5049624;28;20683;-84
2021/05/21 08:06:34;;;;;;;16.70;3.95;;;12.20;94.60;;;;;;5048052;28;20049;-83
2021/05/21 08:09:03;;;;;;;12.48;3.63;;;12.20;94.60;;;;;;5041065;28;20048;-84
2021/05/21 08:11:30;;;;;;;19.58;4.28;;;12.30;94.40;;;;;;5032052;28;20043;-83
2021/05/21 08:13:56;;;;;;;12.77;3.88;;;12.30;94.20;;;;;;5031330;28;20053;-83
2021/05/21 08:16:22;;;;;;;10.95;3.38;;;12.50;93.90;;;;;;5038583;28;20048;-83
2021/05/21 08:18:48;;;;;;;17.55;4.15;;;12.70;92.60;;;;;;5053022;28;20099;-85
2021/05/21 08:21:13;;;;;;;14.50;4.13;;;12.60;93.00;;;;;;5052260;28;20056;-83
2021/05/21 08:23:40;;;;;;;12.23;3.50;;;12.60;92.40;;;;;;5053123;28;20048;-83
2021/05/21 08:26:07;;;;;;;17.38;3.65;;;12.70;92.30;;;;;;5032875;28;20051;-84
2021/05/21 08:28:34;;;;;;;16.70;3.75;;;12.60;92.50;;;;;;5018035;28;20465;-84
2021/05/21 08:31:00;;;;;;;17.05;3.83;;;12.60;92.60;;;;;;5066764;28;20059;-84
2021/05/21 08:33:26;;;;;;;13.13;3.80;;;12.80;92.20;;;;;;5046757;28;20061;-83
2021/05/21 08:35:52;;;;;;;18.63;3.78;;;12.90;91.60;;;;;;5067487;28;20106;-83
2021/05/21 08:38:18;;;;;;;12.15;3.47;;;12.80;92.20;;;;;;5051119;28;20127;-83
2021/05/21 08:40:44;;;;;;;14.88;3.85;;;13.00;91.10;;;;;;5055389;28;20464;-84
2021/05/21 08:43:11;;;;;;;18.85;5.40;;;13.00;91.10;;;;;;5062457;28;20135;-85
2021/05/21 08:45:38;;;;;;;16.35;4.28;;;13.00;91.20;;;;;;5055181;28;20049;-84
2021/05/21 08:48:04;;;;;;;20.42;5.03;;;13.10;91.30;;;;;;5049916;28;20114;-89
2021/05/21 08:50:31;;;;;;;15.32;4.00;;;13.10;91.90;;;;;;5052970;28;20076;-83
2021/05/21 08:52:57;;;;;;;20.00;4.22;;;13.00;92.20;;;;;;5053440;28;20049;-84
2021/05/21 08:55:24;;;;;;;13.13;3.42;;;12.80;92.50;;;;;;5050305;28;20084;-83
2021/05/21 08:57:50;;;;;;;16.98;3.92;;;12.80;92.30;;;;;;5035673;28;20047;-83
2021/05/21 09:00:16;;;;;;;16.15;3.75;;;13.10;91.50;;;;;;5050794;28;20068;-84
2021/05/21 09:02:43;;;;;;;14.93;5.75;;;13.10;90.70;;;;;;5051449;28;20049;-83
2021/05/21 09:05:11;;;;;;;16.80;4.15;;;13.00;91.70;;;;;;5057282;28;20045;-84
2021/05/21 09:07:39;;;;;;;13.07;3.17;;;13.10;91.50;;;;;;5058025;28;20040;-84
2021/05/21 09:10:08;;;;;;;13.55;4.30;;;13.10;91.40;;;;;;5050159;28;20060;-89
2021/05/21 09:12:42;;;;;;;13.73;3.75;;;13.00;92.00;;;;;;5051006;28;20065;-83
2021/05/21 09:15:17;;;;;;;14.68;4.35;;;13.00;92.20;;;;;;5035243;28;20137;-84
2021/05/21 09:17:57;;;;;;;16.40;4.20;;;12.90;92.00;;;;;;5050977;28;20049;-83
2021/05/21 09:20:39;;;;;;;14.70;3.63;;;13.00;92.30;;;;;;5055054;28;20075;-85
2021/05/21 09:23:11;;;;;;;14.90;3.80;;;13.20;92.10;;;;;;5050307;28;20061;-89
2021/05/21 09:25:49;;;;;;;14.38;3.92;;;13.20;91.70;;;;;;5050515;28;20140;-83
2021/05/21 09:28:38;;;;;;;17.65;3.80;;;13.30;91.70;;;;;;5047726;28;20079;-83
2021/05/21 09:31:14;;;;;;;15.13;3.97;;;13.30;91.50;;;;;;5036089;28;20183;-89
2021/05/21 09:33:45;;;;;;;14.38;3.67;;;13.40;90.60;;;;;;5057801;28;20049;-83
2021/05/21 09:36:12;;;;;;;13.35;3.40;;;13.40;90.50;;;;;;5042523;28;20053;-83
2021/05/21 09:38:49;;;;;;;17.10;4.00;;;13.30;91.30;;;;;;5067126;28;20087;-84
2021/05/21 09:41:15;;;;;;;19.55;4.03;;;13.30;91.40;;;;;;5054499;28;20051;-83
2021/05/21 09:43:41;;;;;;;13.35;3.85;;;13.00;92.40;;;;;;5039759;28;20473;-83
2021/05/21 09:46:11;;;;;;;17.70;4.50;;;12.80;92.90;;;;;;5033341;28;20078;-84
2021/05/21 09:48:37;;;;;;;17.15;4.47;;;12.70;93.00;;;;;;5071360;28;20079;-83
2021/05/21 09:51:04;;;;;;;18.52;4.75;;;12.80;93.00;;;;;;5068368;28;20131;-88
2021/05/21 09:53:33;;;;;;;18.48;4.30;;;12.90;93.00;;;;;;5071654;28;20056;-84
2021/05/21 09:56:04;;;;;;;14.13;4.47;;;12.80;93.70;;;;;;5077664;28;20591;-87
2021/05/21 09:58:34;;;;;;;17.33;5.13;;;12.90;92.90;;;;;;5071652;28;20064;-83
2021/05/21 10:01:08;;;;;;;10.75;3.58;;;12.80;93.60;;;;;;5073187;28;20075;-83
2021/05/21 10:03:34;;;;;;;15.32;4.80;;;12.60;94.00;;;;;;5071436;28;20101;-83
2021/05/21 10:06:01;;;;;;;17.48;4.85;;;12.20;95.00;;;;;;5087064;28;20063;-84
2021/05/21 10:08:27;;;;;;;12.13;3.97;;;12.10;95.50;;;;;;5071871;28;20045;-83
2021/05/21 10:10:52;;;;;;;16.75;4.45;;;12.20;95.50;;;;;;5071508;28;20523;-82
2021/05/21 10:13:18;;;;;;;18.10;4.60;;;12.00;96.10;;;;;;5070748;28;20052;-81
2021/05/21 10:15:44;;;;;;;16.88;4.90;;;11.90;96.80;;;;;;5069846;28;20079;-84
2021/05/21 10:18:13;;;;;;;16.95;4.65;;;12.80;97.20;;;;;;5042894;28;20056;-86
2021/05/21 10:20:43;;;;;;;13.38;3.55;;;12.10;96.40;;;;;;5033541;28;20070;-84
2021/05/21 10:23:11;;;;;;;15.05;3.90;;;12.20;96.10;;;;;;5032886;28;20412;-85
2021/05/21 10:25:40;;;;;;;20.73;4.72;;;12.40;95.30;;;;;;5041301;28;20048;-84
2021/05/21 10:28:09;;;;;;;15.07;3.75;;;13.20;94.80;;;;;;5033805;28;20463;-87
2021/05/21 10:30:36;;;;;;;20.15;4.15;;;13.70;93.90;;;;;;5002643;28;20516;-84
2021/05/21 10:33:29;;;;;;;13.10;3.75;;;13.00;92.80;;;;;;5020608;28;20065;-88
2021/05/21 10:36:16;;;;;;;14.57;4.28;;;13.00;93.40;;;;;;5013349;28;20081;-84
2021/05/21 10:39:12;;;;;;;15.00;3.85;;;12.50;94.60;;;;;;5077294;28;20131;-84
2021/05/21 10:41:39;;;;;;;;;;;12.60;94.90;;;;;;5061939;28;20131;-85
2021/05/21 10:44:27;;;;;;;12.02;3.78;;;12.90;95.40;;;;;;5033168;28;19927;-88
2021/05/21 10:47:17;;;;;;;12.48;3.53;;;13.30;93.20;;;;;;5027185;28;20042;-84
2021/05/21 10:50:22;;;;;;;13.65;3.58;;;13.30;93.40;;;;;;5059010;28;21355;-83
2021/05/21 10:52:51;;;;;;;11.18;3.10;;;13.70;92.40;;;;;;5049424;28;20048;-82
2021/05/21 10:55:20;;;;;;;10.90;3.30;;;13.30;93.20;;;;;;5043707;28;20080;-81
2021/05/21 10:58:06;;;;;;;10.45;3.58;;;13.20;93.20;;;;;;5062492;28;20051;-80
2021/05/21 11:00:34;;;;;;;14.13;3.80;;;12.60;95.20;;;;;;5042665;28;20080;-81
2021/05/21 11:03:00;;;;;;;12.60;4.00;;;12.00;96.10;;;;;;5045719;28;20044;-81
2021/05/21 11:05:30;;;;;;;12.77;4.22;;;12.00;96.50;;;;;;5061374;28;20079;-81
2021/05/21 11:08:00;;;;;;;19.40;5.32;;;12.30;96.50;;;;;;5075547;28;20057;-81
2021/05/21 11:10:38;;;;;;;12.15;4.43;;;12.30;96.20;;;;;;5061433;28;20044;-82
2021/05/21 11:13:14;;;;;;;15.88;4.53;;;12.60;95.10;;;;;;5082444;28;20437;-82
2021/05/21 11:15:51;;;;;;;17.67;4.43;;;12.60;94.80;;;;;;5080230;28;20094;-82
2021/05/21 11:18:17;;;;;;;16.45;4.85;;;12.70;94.90;;;;;;5064931;28;20043;-82
2021/05/21 11:21:04;;;;;;;15.73;4.80;;;12.80;95.40;;;;;;5064213;28;20132;-82
2021/05/21 11:23:42;;;;;;;13.20;4.18;;;13.10;94.00;;;;;;5071515;28;20048;-82
2021/05/21 11:26:27;;;;;;;16.02;4.15;;;13.10;94.60;;;;;;5057388;28;20063;-87
2021/05/21 11:28:58;;;;;;;10.00;3.60;;;13.30;93.90;;;;;;5054682;28;20488;-84
2021/05/21 11:31:32;;;;;;;15.38;4.00;;;13.50;93.10;;;;;;5066143;28;20048;-85
2021/05/21 11:34:02;;;;;;;11.10;4.07;;;13.80;92.90;;;;;;5073241;28;20131;-85
2021/05/21 11:36:31;;;;;;;11.50;3.35;;;14.20;93.00;;;;;;5056931;28;20268;-85
2021/05/21 11:38:58;;;;;;;12.82;3.58;;;14.40;92.90;;;;;;5078274;28;20500;-86
2021/05/21 11:41:40;;;;;;;11.38;3.92;;;14.60;90.80;;;;;;5065789;28;20176;-87
2021/05/21 11:44:09;;;;;;;11.27;2.75;;;14.50;90.50;;;;;;5077700;28;20113;-88
2021/05/21 11:46:37;;;;;;;10.25;2.67;;;14.10;90.10;;;;;;5065859;28;20102;-85
2021/05/21 11:49:09;;;;;;;14.27;3.47;;;13.40;91.80;;;;;;5067324;28;20407;-86
2021/05/21 11:51:36;;;;;;;12.90;3.42;;;13.00;92.00;;;;;;5066767;28;20071;-85
2021/05/21 11:54:03;;;;;;;9.18;2.33;;;12.70;93.10;;;;;;5057026;28;20047;-86
2021/05/21 11:56:40;;;;;;;13.13;3.45;;;12.60;93.40;;;;;;5058637;28;20028;-85
2021/05/21 11:59:11;;;;;;;11.80;3.13;;;12.60;93.40;;;;;;5052149;28;20067;-86
2021/05/21 12:01:42;;;;;;;12.90;2.88;;;12.60;93.90;;;;;;5067225;28;20123;-85
2021/05/21 12:04:08;;;;;;;15.38;3.90;;;12.80;93.80;;;;;;5070892;28;20048;-88
2021/05/21 12:06:40;;;;;;;12.70;3.70;;;12.80;94.50;;;;;;5066630;28;20048;-90
2021/05/21 12:09:08;;;;;;;10.57;2.88;;;13.10;94.20;;;;;;5064794;28;20115;-93
2021/05/21 12:11:34;;;;;;;15.85;3.25;;;13.50;93.10;;;;;;5054815;28;20063;-93
2021/05/21 12:14:01;;;;;;;11.70;3.45;;;13.70;92.00;;;;;;5050451;28;20497;-92
2021/05/21 12:16:28;;;;;;;14.82;3.45;;;13.90;91.60;;;;;;5058020;28;20048;-92
2021/05/21 12:18:53;;;;;;;16.35;4.40;;;13.90;92.10;;;;;;5076045;28;20048;-92
2021/05/21 12:21:33;;;;;;;11.57;2.85;;;14.10;90.10;;;;;;5072994;28;20052;-91
2021/05/21 12:24:00;;;;;;;12.10;3.17;;;14.30;89.60;;;;;;5081204;28;20127;-91
2021/05/21 12:26:32;;;;;;;9.60;3.30;;;14.20;89.90;;;;;;5066382;28;20548;-91
2021/05/21 12:29:00;;;;;;;13.95;3.20;;;14.00;91.00;;;;;;5073146;28;20072;-91
2021/05/21 12:31:45;;;;;;;15.65;3.65;;;14.00;91.10;;;;;;5057834;28;20147;-91
2021/05/21 12:34:14;;;;;;;12.18;3.33;;;14.00;90.90;;;;;;5047012;28;20056;-88
2021/05/21 12:36:40;;;;;;;11.50;3.17;;;14.10;90.10;;;;;;5064427;28;20052;-87
2021/05/21 12:39:08;;;;;;;13.77;3.25;;;14.30;88.50;;;;;;5045070;28;20048;-86
2021/05/21 12:41:36;;;;;;;13.18;3.05;;;14.20;88.80;;;;;;5040193;28;20044;-85
2021/05/21 12:44:20;;;;;;;8.75;2.58;;;14.30;88.00;;;;;;5072144;28;20131;-88